Time;durP1;ratioP1;P1;durP2;ratioP2;P2;SDS_P1;SDS_P2;PMS_P1;PMS_P2;Temp;Humidity;BMP_temperature;BMP_pressure;BME280_temperature;BME280_humidity;BME280_pressure;Samples;Min_cycle;Max_cycle;Signal;HPM_P1;HPM_P2
2023/03/01 00:01:02;;;;;;;8.95;6.70;;;;;;;;;;5056321;28;20657;-69
2023/03/01 00:03:29;;;;;;;10.18;7.38;;;;;;;;;;5056071;28;20245;-69
2023/03/01 00:05:58;;;;;;;8.40;6.85;;;;;;;;;;5055858;28;20187;-69
2023/03/01 00:08:26;;;;;;;9.98;7.03;;;;;;;;;;5056486;28;20634;-68
2023/03/01 00:11:01;;;;;;;11.60;7.95;;;;;;;;;;5056271;28;20196;-69
2023/03/01 00:13:28;;;;;;;8.48;7.57;;;;;;;;;;5056457;28;20186;-68
2023/03/01 00:15:55;;;;;;;11.65;7.40;;;;;;;;;;5055949;28;20191;-69
2023/03/01 00:18:23;;;;;;;10.60;7.95;;;;;;;;;;5055710;28;20640;-68
2023/03/01 00:20:52;;;;;;;8.07;7.22;;;;;;;;;;5055883;28;20199;-69
2023/03/01 00:23:20;;;;;;;9.70;8.20;;;;;;;;;;5056074;28;20613;-69
2023/03/01 00:25:48;;;;;;;9.15;7.75;;;;;;;;;;5055773;28;20187;-69
2023/03/01 00:28:15;;;;;;;12.98;8.90;;;;;;;;;;5055679;28;20632;-69
2023/03/01 00:30:42;;;;;;;9.75;8.45;;;;;;;;;;5055941;28;20191;-69
2023/03/01 00:33:09;;;;;;;9.20;8.10;;;;;;;;;;5054872;28;20190;-69
2023/03/01 00:35:37;;;;;;;9.35;8.27;;;;;;;;;;5055032;28;20198;-69
2023/03/01 00:38:05;;;;;;;10.38;9.07;;;;;;;;;;5056203;28;20221;-69
2023/03/01 00:40:34;;;;;;;10.35;8.48;;;;;;;;;;5055480;28;20213;-69
2023/03/01 00:43:02;;;;;;;11.80;8.70;;;;;;;;;;5055225;28;20662;-69
2023/03/01 00:45:30;;;;;;;11.70;7.97;;;;;;;;;;5055403;28;20543;-69
2023/03/01 00:47:58;;;;;;;15.27;9.48;;;;;;;;;;5055444;28;20270;-69
2023/03/01 00:50:25;;;;;;;9.07;7.85;;;;;;;;;;5055311;28;20547;-69
2023/03/01 00:52:53;;;;;;;9.35;8.15;;;;;;;;;;5055511;28;20190;-69
2023/03/01 00:55:21;;;;;;;11.25;8.30;;;;;;;;;;5055680;28;20193;-69
2023/03/01 00:57:49;;;;;;;10.88;7.75;;;;;;;;;;5054955;28;20202;-69
2023/03/01 01:00:17;;;;;;;11.52;8.85;;;;;;;;;;5055134;28;20187;-69
2023/03/01 01:02:44;;;;;;;11.18;9.30;;;;;;;;;;5055179;28;20213;-69
2023/03/01 01:05:11;;;;;;;11.25;8.52;;;;;;;;;;5055076;28;20303;-69
2023/03/01 01:07:38;;;;;;;10.65;9.13;;;;;;;;;;5055247;28;20219;-69
2023/03/01 01:10:07;;;;;;;14.38;9.43;;;;;;;;;;5054616;28;20201;-69
2023/03/01 01:12:34;;;;;;;9.43;8.10;;;;;;;;;;5054671;28;20203;-69
2023/03/01 01:15:02;;;;;;;10.73;8.40;;;;;;;;;;5054846;28;20199;-69
2023/03/01 01:17:30;;;;;;;9.15;7.40;;;;;;;;;;5054769;28;20191;-68
2023/03/01 01:19:57;;;;;;;9.75;7.60;;;;;;;;;;5054755;28;20193;-69
2023/03/01 01:22:24;;;;;;;9.52;7.80;;;;;;;;;;5054449;28;20205;-69
2023/03/01 01:24:51;;;;;;;12.02;8.05;;;;;;;;;;5054623;28;20226;-69
2023/03/01 01:27:18;;;;;;;10.23;8.63;;;;;;;;;;5054695;28;20198;-69
2023/03/01 01:29:46;;;;;;;10.68;8.15;;;;;;;;;;5054550;28;20191;-70
2023/03/01 01:32:14;;;;;;;8.95;7.70;;;;;;;;;;5054298;28;20205;-69
2023/03/01 01:34:41;;;;;;;8.82;7.75;;;;;;;;;;5054221;28;20190;-69
2023/03/01 01:37:08;;;;;;;8.73;7.82;;;;;;;;;;5054473;28;20192;-69
2023/03/01 01:39:36;;;;;;;12.57;8.00;;;;;;;;;;5054458;28;20285;-69
2023/03/01 01:42:03;;;;;;;10.90;8.75;;;;;;;;;;5054045;28;20192;-69
2023/03/01 01:44:31;;;;;;;9.45;7.72;;;;;;;;;;5054093;28;20226;-69
2023/03/01 01:47:00;;;;;;;10.00;6.93;;;;;;;;;;5054227;28;20288;-69
2023/03/01 01:49:33;;;;;;;9.50;7.93;;;;;;;;;;5054230;28;20197;-69
2023/03/01 01:52:06;;;;;;;9.50;8.02;;;;;;;;;;5054273;28;20290;-69
2023/03/01 01:54:37;;;;;;;8.75;7.50;;;;;;;;;;5054619;28;20213;-68
2023/03/01 01:57:08;;;;;;;12.10;8.35;;;;;;;;;;5054449;28;20187;-69
2023/03/01 01:59:35;;;;;;;13.13;8.23;;;;;;;;;;5054361;28;20199;-69
2023/03/01 02:02:04;;;;;;;9.27;8.10;;;;;;;;;;5054097;28;20197;-69
2023/03/01 02:04:33;;;;;;;12.05;8.77;;;;;;;;;;5053623;28;20215;-69
2023/03/01 02:07:03;;;;;;;12.15;9.75;;;;;;;;;;5054136;28;20272;-69
2023/03/01 02:09:32;;;;;;;12.38;8.32;;;;;;;;;;5053891;28;20201;-70
2023/03/01 02:12:00;;;;;;;12.73;8.35;;;;;;;;;;5053565;28;20286;-69
2023/03/01 02:14:27;;;;;;;8.95;8.05;;;;;;;;;;5053631;28;20202;-69
2023/03/01 02:16:54;;;;;;;10.68;8.63;;;;;;;;;;5053695;28;20637;-69
2023/03/01 02:19:28;;;;;;;8.43;7.63;;;;;;;;;;5053964;28;20206;-69
2023/03/01 02:21:59;;;;;;;15.43;9.05;;;;;;;;;;5054002;28;20179;-69
2023/03/01 02:24:30;;;;;;;11.10;7.13;;;;;;;;;;5053896;28;20207;-69
2023/03/01 02:26:59;;;;;;;7.72;6.93;;;;;;;;;;5053326;28;20174;-69
2023/03/01 02:29:28;;;;;;;14.63;8.27;;;;;;;;;;5053662;28;20244;-69
2023/03/01 02:31:57;;;;;;;14.48;8.43;;;;;;;;;;5053220;28;20603;-69
2023/03/01 02:34:25;;;;;;;10.00;7.55;;;;;;;;;;5053740;28;20206;-69
2023/03/01 02:36:55;;;;;;;10.05;8.27;;;;;;;;;;5053139;28;20195;-69
2023/03/01 02:39:26;;;;;;;8.48;7.70;;;;;;;;;;5053858;28;20199;-69
2023/03/01 02:41:54;;;;;;;9.65;7.95;;;;;;;;;;5053830;28;20179;-69
2023/03/01 02:44:22;;;;;;;9.18;7.90;;;;;;;;;;5053408;28;20214;-69
2023/03/01 02:46:51;;;;;;;12.65;7.50;;;;;;;;;;5053406;28;20191;-70
2023/03/01 02:49:23;;;;;;;10.63;8.07;;;;;;;;;;5053373;28;20197;-69
2023/03/01 02:51:56;;;;;;;9.18;8.02;;;;;;;;;;5053300;28;20531;-69
2023/03/01 02:54:27;;;;;;;10.48;7.80;;;;;;;;;;5053930;28;20188;-69
2023/03/01 02:56:54;;;;;;;8.93;7.57;;;;;;;;;;5054357;28;20191;-69
2023/03/01 02:59:22;;;;;;;9.35;7.90;;;;;;;;;;5057727;28;20190;-69
2023/03/01 03:01:51;;;;;;;9.20;7.93;;;;;;;;;;5057371;28;20186;-69
2023/03/01 03:04:20;;;;;;;12.98;8.98;;;;;;;;;;5056979;28;20211;-69
2023/03/01 03:06:48;;;;;;;11.43;7.68;;;;;;;;;;5057466;28;20301;-69
2023/03/01 03:09:15;;;;;;;11.45;8.38;;;;;;;;;;5057259;28;20272;-69
2023/03/01 03:11:43;;;;;;;8.98;7.07;;;;;;;;;;5057175;28;20190;-69
2023/03/01 03:14:12;;;;;;;11.80;7.22;;;;;;;;;;5056905;28;20206;-69
2023/03/01 03:16:41;;;;;;;9.45;7.95;;;;;;;;;;5056777;28;20191;-69
2023/03/01 03:19:09;;;;;;;9.52;7.88;;;;;;;;;;5056817;28;20226;-69
2023/03/01 03:21:36;;;;;;;13.15;9.00;;;;;;;;;;5056971;28;20214;-69
2023/03/01 03:24:03;;;;;;;8.38;7.15;;;;;;;;;;5057449;28;20197;-69
2023/03/01 03:26:31;;;;;;;9.25;7.10;;;;;;;;;;5057021;28;20194;-69
2023/03/01 03:28:58;;;;;;;12.95;7.95;;;;;;;;;;5056911;28;20195;-69
2023/03/01 03:31:26;;;;;;;10.85;7.68;;;;;;;;;;5056750;28;20191;-69
2023/03/01 03:33:53;;;;;;;10.52;8.20;;;;;;;;;;5057169;28;20194;-69
2023/03/01 03:36:22;;;;;;;11.55;8.32;;;;;;;;;;5056472;28;20194;-69
2023/03/01 03:38:49;;;;;;;8.70;7.68;;;;;;;;;;5057083;28;20201;-69
2023/03/01 03:41:17;;;;;;;10.13;8.05;;;;;;;;;;5056463;28;20710;-69
2023/03/01 03:43:45;;;;;;;10.77;8.18;;;;;;;;;;5056255;28;20191;-70
2023/03/01 03:46:13;;;;;;;9.02;7.47;;;;;;;;;;5056543;28;20215;-69
2023/03/01 03:48:40;;;;;;;9.77;7.82;;;;;;;;;;5056548;28;20194;-69
2023/03/01 03:51:08;;;;;;;10.23;7.10;;;;;;;;;;5056856;28;20241;-69
2023/03/01 03:53:37;;;;;;;10.57;7.88;;;;;;;;;;5056437;28;20191;-69
2023/03/01 03:56:04;;;;;;;13.15;8.23;;;;;;;;;;5067393;28;20194;-69
2023/03/01 03:58:31;;;;;;;10.23;8.52;;;;;;;;;;5076330;28;20201;-69
2023/03/01 04:01:00;;;;;;;10.13;7.75;;;;;;;;;;5076359;28;20331;-69
2023/03/01 04:03:28;;;;;;;11.45;9.00;;;;;;;;;;5076182;28;20277;-71
2023/03/01 04:05:56;;;;;;;12.25;8.88;;;;;;;;;;5075644;28;20206;-69
2023/03/01 04:08:24;;;;;;;10.88;8.00;;;;;;;;;;5076057;28;20200;-69
2023/03/01 04:10:53;;;;;;;11.93;7.50;;;;;;;;;;5076520;28;20546;-69
2023/03/01 04:13:22;;;;;;;9.50;8.35;;;;;;;;;;5076357;28;20190;-69
2023/03/01 04:15:50;;;;;;;11.88;8.35;;;;;;;;;;5076051;28;20198;-69
2023/03/01 04:18:18;;;;;;;11.73;10.50;;;;;;;;;;5076334;28;20190;-69
2023/03/01 04:20:45;;;;;;;10.23;8.30;;;;;;;;;;5075683;28;20633;-69
2023/03/01 04:23:15;;;;;;;17.77;8.18;;;;;;;;;;5076025;28;20240;-69
2023/03/01 04:25:44;;;;;;;10.75;9.02;;;;;;;;;;5075816;28;20566;-69
2023/03/01 04:28:12;;;;;;;10.38;8.48;;;;;;;;;;5075429;28;20670;-68
2023/03/01 04:30:41;;;;;;;9.02;8.10;;;;;;;;;;5076280;28;20205;-68
2023/03/01 04:33:08;;;;;;;14.70;9.60;;;;;;;;;;5075867;28;20200;-68
2023/03/01 04:35:36;;;;;;;9.98;8.50;;;;;;;;;;5075871;28;20200;-69
2023/03/01 04:38:04;;;;;;;10.95;8.35;;;;;;;;;;5075461;28;20202;-67
2023/03/01 04:40:31;;;;;;;10.70;8.68;;;;;;;;;;5075683;28;20198;-69
2023/03/01 04:42:58;;;;;;;10.43;9.27;;;;;;;;;;5076138;28;20278;-68
2023/03/01 04:45:27;;;;;;;14.60;8.80;;;;;;;;;;5075137;28;20217;-68
2023/03/01 04:47:57;;;;;;;17.42;9.38;;;;;;;;;;5075098;28;20198;-70
2023/03/01 04:50:25;;;;;;;11.55;9.88;;;;;;;;;;5075190;28;20621;-68
2023/03/01 04:52:53;;;;;;;13.18;8.48;;;;;;;;;;5075094;28;20222;-68
2023/03/01 04:55:20;;;;;;;11.50;8.60;;;;;;;;;;5075283;28;20635;-67
2023/03/01 04:57:48;;;;;;;13.48;9.13;;;;;;;;;;5075453;28;20527;-68
2023/03/01 05:00:23;;;;;;;10.40;8.80;;;;;;;;;;5074920;28;20198;-68
2023/03/01 05:02:53;;;;;;;8.90;8.00;;;;;;;;;;5060544;28;20616;-70
2023/03/01 05:05:25;;;;;;;12.30;8.90;;;;;;;;;;5054732;28;20206;-68
2023/03/01 05:07:53;;;;;;;12.45;8.40;;;;;;;;;;5054881;28;20224;-68
2023/03/01 05:10:20;;;;;;;10.60;8.07;;;;;;;;;;5054373;28;20258;-68
2023/03/01 05:12:47;;;;;;;12.32;9.20;;;;;;;;;;5054408;28;20191;-68
2023/03/01 05:15:15;;;;;;;10.82;9.50;;;;;;;;;;5054190;28;20285;-68
2023/03/01 05:17:42;;;;;;;10.38;8.27;;;;;;;;;;5054313;28;20542;-68
2023/03/01 05:20:11;;;;;;;11.77;10.20;;;;;;;;;;5053581;28;20542;-69
2023/03/01 05:22:39;;;;;;;12.30;9.27;;;;;;;;;;5054629;28;20285;-68
2023/03/01 05:25:07;;;;;;;13.75;8.70;;;;;;;;;;5053921;28;20224;-68
2023/03/01 05:27:35;;;;;;;11.60;8.80;;;;;;;;;;5054379;28;20248;-68
2023/03/01 05:30:13;;;;;;;12.57;8.40;;;;;;;;;;5054248;28;20191;-72
2023/03/01 05:32:40;;;;;;;12.02;9.43;;;;;;;;;;5054265;28;20216;-67
2023/03/01 05:35:08;;;;;;;18.15;9.70;;;;;;;;;;5054367;28;20205;-69
2023/03/01 05:37:36;;;;;;;13.15;9.43;;;;;;;;;;5053916;28;20198;-66
2023/03/01 05:40:05;;;;;;;12.38;8.60;;;;;;;;;;5053939;28;20191;-66
2023/03/01 05:42:32;;;;;;;13.90;10.07;;;;;;;;;;5054336;28;20199;-66
2023/03/01 05:44:59;;;;;;;10.75;9.00;;;;;;;;;;5053715;28;20202;-66
2023/03/01 05:47:27;;;;;;;12.85;9.07;;;;;;;;;;5053677;28;20287;-66
2023/03/01 05:49:54;;;;;;;10.55;8.23;;;;;;;;;;5053762;28;20198;-66
2023/03/01 05:52:21;;;;;;;11.32;10.00;;;;;;;;;;5053836;28;20196;-66
2023/03/01 05:54:49;;;;;;;14.73;9.40;;;;;;;;;;5053760;28;20198;-66
2023/03/01 05:57:17;;;;;;;14.50;9.77;;;;;;;;;;5054057;28;20199;-66
2023/03/01 05:59:44;;;;;;;12.05;9.13;;;;;;;;;;5053769;28;20195;-66
2023/03/01 06:02:11;;;;;;;10.73;9.38;;;;;;;;;;5053847;28;20188;-66
2023/03/01 06:04:38;;;;;;;14.60;10.23;;;;;;;;;;5054097;28;20187;-66
2023/03/01 06:07:05;;;;;;;12.68;9.82;;;;;;;;;;5053319;28;20236;-66
2023/03/01 06:09:32;;;;;;;10.15;9.15;;;;;;;;;;5053389;28;20663;-66
2023/03/01 06:12:01;;;;;;;17.05;9.85;;;;;;;;;;5053682;28;20191;-66
2023/03/01 06:14:28;;;;;;;12.48;9.45;;;;;;;;;;5054149;28;20190;-66
2023/03/01 06:16:55;;;;;;;11.63;9.80;;;;;;;;;;5053599;28;20210;-66
2023/03/01 06:19:24;;;;;;;14.63;9.95;;;;;;;;;;5053114;28;20205;-66
2023/03/01 06:21:51;;;;;;;13.10;9.43;;;;;;;;;;5053359;28;20454;-66
2023/03/01 06:24:18;;;;;;;13.23;9.70;;;;;;;;;;5052983;28;20638;-67
2023/03/01 06:26:45;;;;;;;12.30;9.13;;;;;;;;;;5053132;28;20254;-66
2023/03/01 06:29:14;;;;;;;14.13;9.48;;;;;;;;;;5053177;28;20191;-66
2023/03/01 06:31:41;;;;;;;12.85;9.88;;;;;;;;;;5053747;28;20279;-66
2023/03/01 06:34:10;;;;;;;11.13;9.45;;;;;;;;;;5053813;28;20202;-66
2023/03/01 06:36:37;;;;;;;13.13;10.38;;;;;;;;;;5053484;28;20248;-66
2023/03/01 06:39:05;;;;;;;14.43;10.00;;;;;;;;;;5053405;28;20197;-66
2023/03/01 06:41:32;;;;;;;15.35;10.40;;;;;;;;;;5053937;28;20188;-66
2023/03/01 06:43:59;;;;;;;20.20;10.55;;;;;;;;;;5053399;28;20201;-66
2023/03/01 06:46:28;;;;;;;13.68;9.95;;;;;;;;;;5053005;28;20211;-67
2023/03/01 06:48:55;;;;;;;15.63;9.80;;;;;;;;;;5053375;28;20213;-66
2023/03/01 06:51:22;;;;;;;17.08;9.32;;;;;;;;;;5053308;28;20191;-66
2023/03/01 06:53:49;;;;;;;16.85;10.70;;;;;;;;;;5053431;28;20198;-66
2023/03/01 06:56:17;;;;;;;13.05;9.85;;;;;;;;;;5053269;28;20195;-66
2023/03/01 06:58:44;;;;;;;16.48;10.38;;;;;;;;;;5053231;28;20206;-66
2023/03/01 07:01:11;;;;;;;14.32;9.95;;;;;;;;;;5052848;28;20190;-67
2023/03/01 07:03:39;;;;;;;11.77;9.75;;;;;;;;;;5053591;28;20194;-68
2023/03/01 07:06:07;;;;;;;17.33;9.20;;;;;;;;;;5052703;28;20230;-66
2023/03/01 07:08:34;;;;;;;15.27;10.38;;;;;;;;;;5053423;28;20666;-66
2023/03/01 07:11:03;;;;;;;13.30;9.55;;;;;;;;;;5053260;28;20655;-66
2023/03/01 07:13:30;;;;;;;16.50;10.32;;;;;;;;;;5052772;28;20195;-66
2023/03/01 07:15:58;;;;;;;11.45;8.60;;;;;;;;;;5052650;28;20201;-66
2023/03/01 07:18:25;;;;;;;10.10;8.68;;;;;;;;;;5053131;28;20186;-66
2023/03/01 07:20:53;;;;;;;12.88;9.00;;;;;;;;;;5053152;28;20195;-66
2023/03/01 07:23:21;;;;;;;10.60;7.88;;;;;;;;;;5053376;28;20191;-66
2023/03/01 07:25:52;;;;;;;13.43;8.45;;;;;;;;;;5052604;28;20305;-66
2023/03/01 07:28:19;;;;;;;11.27;8.90;;;;;;;;;;5053240;28;20182;-66
2023/03/01 07:30:47;;;;;;;9.07;7.38;;;;;;;;;;5053338;28;20191;-66
2023/03/01 07:33:14;;;;;;;9.20;7.10;;;;;;;;;;5052831;28;20190;-66
2023/03/01 07:35:41;;;;;;;8.82;7.80;;;;;;;;;;5052975;28;20194;-67
2023/03/01 07:38:10;;;;;;;10.95;8.52;;;;;;;;;;5053189;28;20231;-67
2023/03/01 07:40:37;;;;;;;13.63;8.70;;;;;;;;;;5053108;28;20249;-66
2023/03/01 07:43:04;;;;;;;11.25;7.45;;;;;;;;;;5053898;28;20218;-66
2023/03/01 07:45:31;;;;;;;10.73;8.40;;;;;;;;;;5056758;28;20281;-67
2023/03/01 07:47:58;;;;;;;8.75;7.75;;;;;;;;;;5056702;28;20218;-66
2023/03/01 07:50:26;;;;;;;13.98;8.05;;;;;;;;;;5056829;28;20215;-66
2023/03/01 07:52:53;;;;;;;16.38;8.05;;;;;;;;;;5056454;28;20192;-66
2023/03/01 07:55:21;;;;;;;15.63;9.05;;;;;;;;;;5056688;28;20198;-67
2023/03/01 07:57:48;;;;;;;13.75;7.95;;;;;;;;;;5056347;28;20196;-67
2023/03/01 08:00:16;;;;;;;10.95;7.82;;;;;;;;;;5056471;28;20537;-67
2023/03/01 08:02:43;;;;;;;10.43;9.40;;;;;;;;;;5056629;28;21991;-67
2023/03/01 08:05:11;;;;;;;9.63;7.20;;;;;;;;;;5056566;28;20539;-67
2023/03/01 08:07:38;;;;;;;12.93;7.38;;;;;;;;;;5056332;28;20234;-67
2023/03/01 08:10:05;;;;;;;11.30;7.28;;;;;;;;;;5055805;28;20230;-67
2023/03/01 08:12:34;;;;;;;9.65;7.50;;;;;;;;;;5056135;28;20248;-66
2023/03/01 08:15:01;;;;;;;9.80;7.95;;;;;;;;;;5055866;28;20198;-66
2023/03/01 08:17:28;;;;;;;13.60;7.55;;;;;;;;;;5055940;28;20648;-67
2023/03/01 08:19:55;;;;;;;10.45;7.70;;;;;;;;;;5055969;28;20191;-67
2023/03/01 08:22:23;;;;;;;14.50;8.52;;;;;;;;;;5055755;28;20187;-67
2023/03/01 08:24:50;;;;;;;18.90;9.07;;;;;;;;;;5055911;28;20188;-67
2023/03/01 08:27:17;;;;;;;8.93;7.57;;;;;;;;;;5055710;28;20214;-67
2023/03/01 08:29:46;;;;;;;9.13;7.72;;;;;;;;;;5055473;28;20188;-67
2023/03/01 08:32:13;;;;;;;10.75;8.15;;;;;;;;;;5055286;28;20195;-67
2023/03/01 08:34:41;;;;;;;8.05;6.75;;;;;;;;;;5055875;28;20652;-66
2023/03/01 08:37:08;;;;;;;9.10;7.10;;;;;;;;;;5055634;28;20197;-67
2023/03/01 08:39:35;;;;;;;10.00;7.70;;;;;;;;;;5055584;28;20193;-66
2023/03/01 08:42:02;;;;;;;10.80;7.47;;;;;;;;;;5055657;28;20200;-67
2023/03/01 08:44:30;;;;;;;10.48;8.23;;;;;;;;;;5056138;28;20202;-67
2023/03/01 08:46:58;;;;;;;10.65;7.07;;;;;;;;;;5055017;28;20216;-66
2023/03/01 08:49:26;;;;;;;17.13;9.07;;;;;;;;;;5055458;28;20203;-66
2023/03/01 08:51:54;;;;;;;9.85;7.22;;;;;;;;;;5055537;28;20188;-67
2023/03/01 08:54:22;;;;;;;12.45;8.88;;;;;;;;;;5053978;28;20311;-67
2023/03/01 08:56:49;;;;;;;10.25;7.85;;;;;;;;;;5054902;28;20199;-67
2023/03/01 08:59:18;;;;;;;8.05;6.32;;;;;;;;;;5055257;28;20192;-67
2023/03/01 09:01:45;;;;;;;10.63;8.30;;;;;;;;;;5055029;28;20193;-66
2023/03/01 09:04:14;;;;;;;11.57;9.02;;;;;;;;;;5054761;28;20292;-67
2023/03/01 09:06:41;;;;;;;9.73;8.43;;;;;;;;;;5054970;28;20229;-66
2023/03/01 09:09:14;;;;;;;14.75;9.65;;;;;;;;;;5055187;28;20190;-68
2023/03/01 09:11:41;;;;;;;11.32;7.75;;;;;;;;;;5054927;28;20189;-67
2023/03/01 09:14:09;;;;;;;12.60;8.88;;;;;;;;;;5055361;28;20196;-65
2023/03/01 09:16:36;;;;;;;11.38;7.80;;;;;;;;;;5054949;28;20199;-65
2023/03/01 09:19:04;;;;;;;11.52;8.27;;;;;;;;;;5054852;28;20197;-66
2023/03/01 09:21:32;;;;;;;12.02;8.65;;;;;;;;;;5055317;28;20193;-66
2023/03/01 09:24:00;;;;;;;9.73;7.97;;;;;;;;;;5054764;28;20200;-66
2023/03/01 09:26:27;;;;;;;13.18;8.25;;;;;;;;;;5054823;28;20214;-66
2023/03/01 09:28:56;;;;;;;9.95;8.45;;;;;;;;;;5054563;28;20197;-66
2023/03/01 09:31:24;;;;;;;13.95;8.27;;;;;;;;;;5054535;28;20193;-65
2023/03/01 09:33:52;;;;;;;10.50;7.95;;;;;;;;;;5055038;28;20194;-65
2023/03/01 09:36:21;;;;;;;9.48;6.60;;;;;;;;;;5054160;28;20203;-65
2023/03/01 09:38:50;;;;;;;10.95;7.88;;;;;;;;;;5054065;28;20189;-65
2023/03/01 09:41:25;;;;;;;12.18;7.55;;;;;;;;;;5054338;28;20201;-66
2023/03/01 09:43:54;;;;;;;8.60;6.65;;;;;;;;;;5054988;28;20580;-65
2023/03/01 09:46:23;;;;;;;9.75;7.35;;;;;;;;;;5053982;28;20283;-66
2023/03/01 09:48:53;;;;;;;8.80;7.03;;;;;;;;;;5054592;28;20194;-67
2023/03/01 09:51:23;;;;;;;11.15;8.23;;;;;;;;;;5054640;28;20539;-66
2023/03/01 09:53:54;;;;;;;11.35;8.85;;;;;;;;;;5053878;28;20193;-66
2023/03/01 09:56:22;;;;;;;12.90;7.93;;;;;;;;;;5055020;28;20675;-65
2023/03/01 09:58:52;;;;;;;10.40;7.05;;;;;;;;;;5053745;28;20658;-66
2023/03/01 10:01:32;;;;;;;7.47;6.57;;;;;;;;;;5054280;28;20192;-66
2023/03/01 10:04:08;;;;;;;11.20;7.55;;;;;;;;;;5054383;28;20624;-65
2023/03/01 10:06:35;;;;;;;11.32;9.32;;;;;;;;;;5053131;28;20224;-67
2023/03/01 10:09:07;;;;;;;9.40;7.65;;;;;;;;;;5053602;28;20197;-66
2023/03/01 10:11:37;;;;;;;10.30;8.10;;;;;;;;;;5053908;28;20221;-66
2023/03/01 10:14:06;;;;;;;14.88;9.15;;;;;;;;;;5053816;28;20549;-66
2023/03/01 10:16:39;;;;;;;13.80;8.70;;;;;;;;;;5053964;28;20191;-66
2023/03/01 10:19:07;;;;;;;13.77;8.80;;;;;;;;;;5053749;28;20273;-66
2023/03/01 10:21:38;;;;;;;11.70;8.55;;;;;;;;;;5053893;28;20188;-66
2023/03/01 10:24:12;;;;;;;10.98;8.60;;;;;;;;;;5053632;28;20188;-66
2023/03/01 10:26:46;;;;;;;10.27;8.15;;;;;;;;;;5054059;28;20202;-66
2023/03/01 10:29:14;;;;;;;12.23;8.52;;;;;;;;;;5053323;28;20622;-66
2023/03/01 10:31:43;;;;;;;11.63;8.43;;;;;;;;;;5053901;28;20198;-66
2023/03/01 10:34:15;;;;;;;12.18;7.97;;;;;;;;;;5053222;28;20216;-66
2023/03/01 10:36:43;;;;;;;10.30;7.70;;;;;;;;;;5053257;28;20205;-66
2023/03/01 10:39:16;;;;;;;13.70;9.57;;;;;;;;;;5053173;28;20189;-66
2023/03/01 10:41:54;;;;;;;11.85;9.20;;;;;;;;;;5053661;28;20281;-66
2023/03/01 10:44:37;;;;;;;13.77;8.75;;;;;;;;;;5053236;28;20180;-66
2023/03/01 10:47:04;;;;;;;8.90;7.28;;;;;;;;;;5054140;28;20209;-66
2023/03/01 10:49:31;;;;;;;14.77;9.20;;;;;;;;;;5053057;28;20200;-66
2023/03/01 10:52:12;;;;;;;12.82;8.77;;;;;;;;;;5053742;28;20194;-66
2023/03/01 10:54:41;;;;;;;12.10;9.63;;;;;;;;;;5053386;28;20188;-67
2023/03/01 10:57:26;;;;;;;11.70;9.88;;;;;;;;;;5053343;28;20271;-66
2023/03/01 11:00:03;;;;;;;14.35;9.10;;;;;;;;;;5053084;28;20224;-65
2023/03/01 11:02:32;;;;;;;12.10;9.32;;;;;;;;;;5053338;28;20193;-66
2023/03/01 11:05:00;;;;;;;11.52;9.25;;;;;;;;;;5053310;28;20215;-65
2023/03/01 11:07:28;;;;;;;11.20;8.23;;;;;;;;;;5052889;28;20237;-66
2023/03/01 11:09:57;;;;;;;11.50;8.38;;;;;;;;;;5052824;28;20224;-65
2023/03/01 11:12:24;;;;;;;13.93;9.65;;;;;;;;;;5053291;28;20201;-66
2023/03/01 11:14:52;;;;;;;15.00;8.85;;;;;;;;;;5052896;28;20287;-65
2023/03/01 11:17:23;;;;;;;13.38;10.13;;;;;;;;;;5052946;28;20661;-65
2023/03/01 11:20:02;;;;;;;12.68;9.25;;;;;;;;;;5056713;28;20180;-67
2023/03/01 11:22:29;;;;;;;13.80;10.90;;;;;;;;;;5056348;28;20462;-66
2023/03/01 11:24:59;;;;;;;14.70;11.20;;;;;;;;;;5056769;28;20593;-66
2023/03/01 11:27:27;;;;;;;14.70;10.35;;;;;;;;;;5056728;28;20218;-67
2023/03/01 11:29:57;;;;;;;12.57;9.95;;;;;;;;;;5056754;28;20283;-66
2023/03/01 11:32:26;;;;;;;12.27;9.80;;;;;;;;;;5056522;28;20182;-66
2023/03/01 11:34:58;;;;;;;10.15;8.73;;;;;;;;;;5056750;28;20225;-66
2023/03/01 11:37:30;;;;;;;10.32;7.55;;;;;;;;;;5057037;28;20198;-66
2023/03/01 11:40:05;;;;;;;13.63;8.38;;;;;;;;;;5056670;28;20263;-66
2023/03/01 11:42:39;;;;;;;9.65;8.38;;;;;;;;;;5056794;28;20239;-66
2023/03/01 11:45:09;;;;;;;11.07;8.38;;;;;;;;;;5056569;28;20275;-66
2023/03/01 11:47:45;;;;;;;13.95;10.63;;;;;;;;;;5056252;28;20215;-66
2023/03/01 11:50:18;;;;;;;11.18;8.25;;;;;;;;;;5056226;28;20354;-66
2023/03/01 11:52:54;;;;;;;13.43;8.35;;;;;;;;;;5056384;28;20185;-66
2023/03/01 11:55:28;;;;;;;9.07;7.95;;;;;;;;;;5056432;28;20190;-66
2023/03/01 11:58:01;;;;;;;10.63;8.00;;;;;;;;;;5056561;28;20193;-67
2023/03/01 12:00:35;;;;;;;11.73;9.13;;;;;;;;;;5056346;28;20189;-66
2023/03/01 12:03:19;;;;;;;10.52;7.60;;;;;;;;;;5056761;28;20209;-66
2023/03/01 12:06:07;;;;;;;9.70;7.38;;;;;;;;;;5056134;28;20277;-66
2023/03/01 12:08:37;;;;;;;14.32;7.50;;;;;;;;;;5049068;28;20219;-66
2023/03/01 12:11:13;;;;;;;10.02;8.18;;;;;;;;;;5056208;28;20189;-66
2023/03/01 12:14:01;;;;;;;11.43;8.50;;;;;;;;;;5056252;28;20188;-66
2023/03/01 12:16:34;;;;;;;12.38;8.18;;;;;;;;;;5056627;28;20213;-66
2023/03/01 12:19:19;;;;;;;9.65;7.70;;;;;;;;;;5056198;28;20195;-66
2023/03/01 12:21:59;;;;;;;11.30;7.32;;;;;;;;;;5056291;28;20536;-66
2023/03/01 12:24:43;;;;;;;11.85;8.55;;;;;;;;;;5055878;28;20181;-66
2023/03/01 12:27:25;;;;;;;10.13;7.88;;;;;;;;;;5039725;28;20190;-66
2023/03/01 12:29:56;;;;;;;10.05;8.57;;;;;;;;;;5055273;28;20692;-66
2023/03/01 12:32:32;;;;;;;10.23;7.70;;;;;;;;;;5055642;28;20184;-66
2023/03/01 12:35:14;;;;;;;8.10;7.03;;;;;;;;;;5055597;28;20269;-66
2023/03/01 12:37:49;;;;;;;7.57;6.72;;;;;;;;;;5035605;28;20199;-66
2023/03/01 12:40:31;;;;;;;11.90;8.02;;;;;;;;;;5055059;28;20181;-65
2023/03/01 12:43:07;;;;;;;15.90;11.32;;;;;;;;;;5056018;28;20186;-65
2023/03/01 12:45:40;;;;;;;17.33;9.30;;;;;;;;;;5055152;28;20189;-66
2023/03/01 12:48:20;;;;;;;11.65;7.93;;;;;;;;;;5055357;28;20209;-66
2023/03/01 12:50:53;;;;;;;9.93;7.10;;;;;;;;;;5055531;28;20187;-66
2023/03/01 12:53:24;;;;;;;10.20;7.93;;;;;;;;;;5055044;28;20198;-66
2023/03/01 12:55:52;;;;;;;13.73;8.32;;;;;;;;;;5055283;28;20186;-66
2023/03/01 12:58:25;;;;;;;9.75;7.82;;;;;;;;;;5055574;28;20201;-66
2023/03/01 13:00:59;;;;;;;11.13;8.38;;;;;;;;;;5054976;28;20623;-66
2023/03/01 13:03:30;;;;;;;8.75;7.47;;;;;;;;;;5054992;28;20197;-66
2023/03/01 13:06:05;;;;;;;8.25;7.18;;;;;;;;;;5055126;28;20562;-66
2023/03/01 13:08:35;;;;;;;10.93;5.78;;;;;;;;;;5054759;28;20670;-66
2023/03/01 13:11:08;;;;;;;6.47;5.85;;;;;;;;;;5055099;28;20547;-66
2023/03/01 13:13:36;;;;;;;7.20;5.90;;;;;;;;;;5054684;28;20272;-66
2023/03/01 13:16:18;;;;;;;7.03;6.07;;;;;;;;;;5055016;28;20238;-66
2023/03/01 13:18:45;;;;;;;8.82;6.32;;;;;;;;;;5054849;28;20198;-66
2023/03/01 13:21:13;;;;;;;7.22;6.10;;;;;;;;;;5054804;28;20192;-66
2023/03/01 13:23:41;;;;;;;7.03;5.93;;;;;;;;;;5054514;28;20222;-66
2023/03/01 13:26:11;;;;;;;7.65;6.55;;;;;;;;;;5054386;28;20197;-66
2023/03/01 13:29:00;;;;;;;7.68;6.50;;;;;;;;;;5054939;28;20204;-66
2023/03/01 13:32:01;;;;;;;7.85;5.90;;;;;;;;;;5054933;28;20187;-66
2023/03/01 13:34:48;;;;;;;9.77;6.55;;;;;;;;;;5054014;28;20220;-66
2023/03/01 13:37:25;;;;;;;11.85;6.03;;;;;;;;;;5054491;28;20246;-66
2023/03/01 13:39:53;;;;;;;8.13;6.63;;;;;;;;;;5054560;28;20190;-66
2023/03/01 13:42:38;;;;;;;12.70;6.15;;;;;;;;;;5053946;28;20198;-66
2023/03/01 13:45:15;;;;;;;9.35;6.65;;;;;;;;;;5054293;28;20197;-66
2023/03/01 13:47:43;;;;;;;8.82;7.05;;;;;;;;;;5054373;28;20220;-66
2023/03/01 13:50:18;;;;;;;7.28;6.22;;;;;;;;;;5053939;28;20223;-66
2023/03/01 13:52:46;;;;;;;9.65;6.40;;;;;;;;;;5054443;28;20185;-66
2023/03/01 13:55:18;;;;;;;7.47;6.50;;;;;;;;;;5054688;28;20195;-66
2023/03/01 13:57:47;;;;;;;7.78;5.90;;;;;;;;;;5054057;28;20200;-66
2023/03/01 14:00:28;;;;;;;9.50;6.63;;;;;;;;;;5053954;28;20194;-66
2023/03/01 14:03:03;;;;;;;10.60;7.20;;;;;;;;;;5054340;28;20252;-66
2023/03/01 14:05:30;;;;;;;9.18;6.80;;;;;;;;;;5053971;28;20198;-66
2023/03/01 14:07:58;;;;;;;7.40;6.55;;;;;;;;;;5053420;28;20229;-66
2023/03/01 14:10:27;;;;;;;8.88;6.85;;;;;;;;;;5052589;28;20192;-66
2023/03/01 14:12:57;;;;;;;9.82;6.82;;;;;;;;;;5052604;28;20635;-65
2023/03/01 14:15:27;;;;;;;10.32;7.47;;;;;;;;;;5052990;28;20291;-68
2023/03/01 14:18:00;;;;;;;24.05;6.60;;;;;;;;;;5053554;28;20199;-68
2023/03/01 14:20:28;;;;;;;7.00;6.30;;;;;;;;;;5052524;28;20177;-68
2023/03/01 14:22:57;;;;;;;9.40;7.00;;;;;;;;;;5052686;28;20656;-68
2023/03/01 14:25:25;;;;;;;8.25;6.82;;;;;;;;;;5052363;28;20204;-69
2023/03/01 14:27:54;;;;;;;7.13;6.43;;;;;;;;;;5052429;28;20800;-67
2023/03/01 14:30:23;;;;;;;8.90;7.40;;;;;;;;;;5052957;28;20229;-66
2023/03/01 14:32:54;;;;;;;11.05;7.38;;;;;;;;;;5053127;28;20187;-67
2023/03/01 14:35:23;;;;;;;8.75;6.60;;;;;;;;;;5052372;28;20199;-66
2023/03/01 14:37:50;;;;;;;7.00;6.30;;;;;;;;;;5052439;28;20199;-68
2023/03/01 14:40:25;;;;;;;7.88;6.50;;;;;;;;;;5052634;28;20279;-68
2023/03/01 14:42:53;;;;;;;9.73;6.65;;;;;;;;;;5052459;28;20268;-66
2023/03/01 14:45:20;;;;;;;9.98;6.50;;;;;;;;;;5052273;28;20638;-67
2023/03/01 14:47:48;;;;;;;7.88;7.07;;;;;;;;;;5051904;28;20543;-68